createdAt,value
2023-11-07T00:00:10.917Z,96.44
2023-11-07T00:02:37.642Z,96.00
2023-11-07T00:05:05.086Z,96.06
2023-11-07T00:07:31.640Z,96.39
2023-11-07T00:09:58.055Z,95.84
2023-11-07T00:12:24.514Z,96.25
2023-11-07T00:14:52.037Z,96.54
2023-11-07T00:17:21.805Z,96.67
2023-11-07T00:19:48.299Z,96.20
2023-11-07T00:22:14.900Z,96.39
2023-11-07T00:24:41.517Z,96.13
2023-11-07T00:27:07.941Z,96.52
2023-11-07T00:29:35.221Z,96.83
2023-11-07T00:32:01.749Z,96.49
2023-11-07T00:34:29.140Z,96.33
2023-11-07T00:36:55.658Z,96.80
2023-11-07T00:39:22.144Z,96.47
2023-11-07T00:41:48.946Z,97.07
2023-11-07T00:44:15.549Z,96.26
2023-11-07T00:46:42.042Z,96.68
2023-11-07T00:49:08.633Z,97.01
2023-11-07T00:51:35.233Z,97.09
2023-11-07T00:54:01.853Z,96.31
2023-11-07T00:56:28.363Z,97.14
2023-11-07T00:58:54.753Z,96.91
2023-11-07T01:01:21.457Z,96.66
2023-11-07T01:03:48.320Z,96.60
2023-11-07T01:06:14.964Z,96.90
2023-11-07T01:08:41.717Z,96.35
2023-11-07T01:11:08.837Z,96.82
2023-11-07T01:13:35.540Z,96.04
2023-11-07T01:16:02.313Z,96.03
2023-11-07T01:18:28.944Z,96.41
2023-11-07T01:20:55.562Z,96.12
2023-11-07T01:23:22.067Z,96.34
2023-11-07T01:25:48.510Z,96.30
2023-11-07T01:28:16.351Z,95.86
2023-11-07T01:30:42.835Z,96.07
2023-11-07T01:33:11.156Z,95.76
2023-11-07T01:35:37.745Z,95.30
2023-11-07T01:38:04.610Z,96.18
2023-11-07T01:40:31.165Z,95.97
2023-11-07T01:42:57.669Z,96.44
2023-11-07T01:45:25.068Z,95.67
2023-11-07T01:50:19.065Z,95.38
2023-11-07T01:52:45.773Z,96.11
2023-11-07T01:55:17.629Z,95.48
2023-11-07T01:57:45.801Z,95.79
2023-11-07T02:00:14.048Z,95.58
2023-11-07T02:02:41.639Z,96.23
2023-11-07T02:05:10.998Z,96.26
2023-11-07T02:07:40.756Z,96.17
2023-11-07T02:10:07.806Z,95.43
2023-11-07T02:12:34.577Z,96.09
2023-11-07T02:15:18.349Z,95.57
2023-11-07T02:17:45.401Z,96.10
2023-11-07T02:20:15.263Z,96.14
2023-11-07T02:22:43.575Z,96.38
2023-11-07T02:25:17.361Z,96.23
2023-11-07T02:27:44.000Z,96.19
2023-11-07T02:30:14.679Z,96.39
2023-11-07T02:32:42.153Z,96.07
2023-11-07T02:35:12.049Z,96.45
2023-11-07T02:37:39.300Z,96.32
2023-11-07T02:40:07.526Z,96.36
2023-11-07T02:42:34.366Z,95.75
2023-11-07T02:45:00.948Z,96.21
2023-11-07T02:47:27.533Z,96.48
2023-11-07T02:49:55.154Z,96.55
2023-11-07T02:52:22.226Z,96.15
2023-11-07T02:54:49.894Z,96.63
2023-11-07T02:57:16.705Z,96.61
2023-11-07T02:59:47.267Z,96.60
2023-11-07T03:02:14.144Z,96.65
2023-11-07T03:04:40.614Z,97.28
2023-11-07T03:07:08.281Z,97.09
2023-11-07T03:09:36.449Z,97.11
2023-11-07T03:12:03.888Z,96.93
2023-11-07T03:14:30.415Z,96.69
2023-11-07T03:16:56.848Z,96.53
2023-11-07T03:19:23.391Z,96.69
2023-11-07T03:21:49.857Z,96.27
2023-11-07T03:24:18.497Z,96.87
2023-11-07T03:26:46.272Z,96.96
2023-11-07T03:29:14.011Z,96.72
2023-11-07T03:31:41.101Z,96.39
2023-11-07T03:34:07.709Z,96.41
2023-11-07T03:36:34.263Z,96.56
2023-11-07T03:39:01.022Z,96.15
2023-11-07T03:41:27.822Z,96.59
2023-11-07T03:43:54.795Z,96.61
2023-11-07T03:46:21.731Z,96.37
2023-11-07T03:48:48.519Z,96.10
2023-11-07T03:51:15.395Z,96.93
2023-11-07T03:53:42.325Z,96.29
2023-11-07T03:56:10.336Z,96.57
2023-11-07T03:58:37.003Z,96.20
2023-11-07T04:01:04.751Z,95.96
2023-11-07T04:03:31.273Z,96.01
2023-11-07T04:05:57.773Z,96.57
2023-11-07T04:08:24.415Z,96.41
2023-11-07T04:10:50.857Z,96.42
2023-11-07T04:13:17.319Z,96.25
2023-11-07T04:15:43.788Z,96.39
2023-11-07T04:18:13.463Z,97.04
2023-11-07T04:20:43.470Z,96.69
2023-11-07T04:23:10.630Z,96.99
2023-11-07T04:25:37.742Z,96.70
2023-11-07T04:28:05.068Z,95.95
2023-11-07T04:30:31.803Z,95.92
2023-11-07T04:32:58.437Z,96.48
2023-11-07T04:35:25.216Z,96.30
2023-11-07T04:37:51.686Z,96.53
2023-11-07T04:40:20.182Z,95.97
2023-11-07T04:42:46.929Z,96.10
2023-11-07T04:45:13.495Z,96.22
2023-11-07T04:47:40.689Z,95.93
2023-11-07T04:50:07.497Z,96.38
2023-11-07T04:52:34.918Z,95.89
2023-11-07T04:55:01.985Z,96.21
2023-11-07T04:57:28.941Z,96.05
2023-11-07T04:59:55.697Z,95.86
2023-11-07T05:02:22.980Z,96.00
2023-11-07T05:04:49.473Z,96.29
2023-11-07T05:07:16.138Z,96.57
2023-11-07T05:09:42.652Z,96.62
2023-11-07T05:12:13.910Z,96.45
2023-11-07T05:14:41.846Z,96.58
2023-11-07T05:17:08.315Z,96.60
2023-11-07T05:19:34.732Z,96.66
2023-11-07T05:22:01.192Z,96.66
2023-11-07T05:24:27.597Z,96.96
2023-11-07T05:26:54.032Z,97.42
2023-11-07T05:29:20.657Z,97.36
2023-11-07T05:31:48.065Z,96.65
2023-11-07T05:34:14.766Z,97.39
2023-11-07T05:36:41.274Z,97.54
2023-11-07T05:39:07.754Z,97.53
2023-11-07T05:41:34.820Z,96.97
2023-11-07T05:44:01.306Z,97.75
2023-11-07T05:46:28.333Z,98.02
2023-11-07T05:48:55.040Z,97.57
2023-11-07T05:51:24.564Z,98.16
2023-11-07T05:53:54.210Z,97.83
2023-11-07T05:56:20.829Z,97.89
2023-11-07T05:58:49.606Z,98.39
2023-11-07T06:01:16.479Z,97.83
2023-11-07T06:03:43.055Z,98.20
2023-11-07T06:06:09.800Z,97.92
2023-11-07T06:08:36.624Z,98.47
2023-11-07T06:11:03.501Z,98.31
2023-11-07T06:13:30.233Z,98.51
2023-11-07T06:15:56.743Z,98.51
2023-11-07T06:18:23.381Z,98.35
2023-11-07T06:20:50.805Z,98.13
2023-11-07T06:23:17.367Z,99.00
2023-11-07T06:25:43.790Z,99.26
2023-11-07T06:28:10.191Z,98.60
2023-11-07T06:30:37.441Z,99.23
2023-11-07T06:33:04.049Z,99.31
2023-11-07T06:35:30.788Z,99.25
2023-11-07T06:37:57.284Z,99.53
2023-11-07T06:40:24.684Z,98.94
2023-11-07T06:42:52.822Z,99.09
2023-11-07T06:45:19.822Z,99.10
2023-11-07T06:47:47.832Z,99.35
2023-11-07T06:50:16.643Z,98.99
2023-11-07T06:52:50.301Z,99.68
2023-11-07T06:55:20.206Z,99.54
2023-11-07T06:57:46.698Z,99.69
2023-11-07T07:00:13.543Z,99.73
2023-11-07T07:02:41.767Z,99.88
2023-11-07T07:05:13.896Z,99.12
2023-11-07T07:07:43.968Z,100.00
2023-11-07T07:10:11.669Z,99.99
2023-11-07T07:12:38.716Z,99.72
2023-11-07T07:15:09.221Z,99.53
2023-11-07T07:17:35.820Z,99.28
2023-11-07T07:20:04.354Z,99.21
2023-11-07T07:22:30.805Z,99.73
2023-11-07T07:25:00.855Z,99.33
2023-11-07T07:27:30.258Z,99.75
2023-11-07T07:29:58.114Z,99.77
2023-11-07T07:32:25.254Z,99.34
2023-11-07T07:34:52.880Z,98.99
2023-11-07T07:37:21.981Z,99.16
2023-11-07T07:39:48.577Z,98.45
2023-11-07T07:42:18.317Z,98.05
2023-11-07T07:44:45.918Z,98.59
2023-11-07T07:47:12.881Z,98.02
2023-11-07T07:49:41.185Z,98.06
2023-11-07T07:52:11.384Z,97.74
2023-11-07T07:55:00.424Z,97.34
2023-11-07T07:57:25.333Z,97.12
2023-11-07T07:59:51.894Z,97.29
2023-11-07T08:02:18.724Z,97.49
2023-11-07T08:04:47.587Z,97.50
2023-11-07T08:07:17.625Z,97.51
2023-11-07T08:09:45.502Z,96.81
2023-11-07T08:12:13.497Z,96.41
2023-11-07T08:14:42.227Z,96.55
2023-11-07T08:17:10.712Z,96.23
2023-11-07T08:19:37.591Z,96.56
2023-11-07T08:22:08.404Z,96.52
2023-11-07T08:24:35.352Z,96.47
2023-11-07T08:27:01.982Z,95.59
2023-11-07T08:29:28.912Z,95.40
2023-11-07T08:31:56.199Z,95.10
2023-11-07T08:34:24.032Z,94.27
2023-11-07T08:36:56.923Z,93.40
2023-11-07T08:39:34.903Z,92.75
2023-11-07T08:42:01.467Z,92.83
2023-11-07T08:44:27.959Z,92.38
2023-11-07T08:46:54.364Z,92.21
2023-11-07T08:49:21.255Z,92.63
2023-11-07T08:51:52.625Z,92.36
2023-11-07T08:54:19.527Z,91.04
2023-11-07T08:56:50.236Z,90.65
2023-11-07T08:59:17.037Z,90.51
2023-11-07T09:01:43.665Z,90.05
2023-11-07T09:04:10.858Z,88.96
2023-11-07T09:06:41.516Z,89.30
2023-11-07T09:09:09.340Z,90.00
2023-11-07T09:11:36.124Z,89.73
2023-11-07T09:14:02.696Z,89.28
2023-11-07T09:16:30.262Z,89.14
2023-11-07T09:18:56.960Z,88.52
2023-11-07T09:21:23.508Z,88.32
2023-11-07T09:23:51.252Z,88.67
2023-11-07T09:26:18.668Z,87.33
2023-11-07T09:28:45.287Z,87.31
2023-11-07T09:31:13.413Z,86.38
2023-11-07T09:33:40.194Z,85.42
2023-11-07T09:36:08.094Z,85.34
2023-11-07T09:38:46.839Z,84.32
2023-11-07T09:41:18.855Z,83.59
2023-11-07T09:43:46.293Z,84.32
2023-11-07T09:46:13.027Z,85.30
2023-11-07T09:48:40.362Z,85.15
2023-11-07T09:51:10.889Z,85.07
2023-11-07T09:53:40.647Z,85.51
2023-11-07T09:56:11.869Z,85.96
2023-11-07T09:58:46.286Z,85.68
2023-11-07T10:01:13.225Z,86.01
2023-11-07T10:03:44.371Z,86.42
2023-11-07T10:06:11.821Z,86.33
2023-11-07T10:08:38.342Z,86.73
2023-11-07T10:11:12.787Z,85.93
2023-11-07T10:13:39.699Z,84.28
2023-11-07T10:18:49.730Z,83.31
2023-11-07T10:21:30.859Z,83.85
2023-11-07T10:23:57.471Z,84.48
2023-11-07T10:26:25.686Z,83.24
2023-11-07T10:29:06.212Z,84.41
2023-11-07T10:31:32.683Z,82.59
2023-11-07T10:34:18.709Z,82.89
2023-11-07T10:36:47.975Z,82.40
2023-11-07T10:39:18.985Z,81.42
2023-11-07T10:41:46.016Z,80.31
2023-11-07T10:44:26.532Z,81.35
2023-11-07T10:46:54.814Z,80.63
2023-11-07T10:49:22.769Z,80.40
2023-11-07T10:51:50.709Z,80.41
2023-11-07T10:54:21.485Z,80.61
2023-11-07T10:56:50.458Z,78.34
2023-11-07T10:59:22.011Z,79.37
2023-11-07T11:01:53.759Z,79.78
2023-11-07T11:04:23.889Z,78.69
2023-11-07T11:06:55.373Z,77.24
2023-11-07T11:09:23.757Z,77.40
2023-11-07T11:11:54.786Z,77.01
2023-11-07T11:14:21.402Z,76.50
2023-11-07T11:16:50.158Z,77.23
2023-11-07T11:19:25.594Z,76.79
2023-11-07T11:22:06.344Z,77.87
2023-11-07T11:24:47.623Z,75.80
2023-11-07T11:27:19.849Z,75.81
2023-11-07T11:29:50.652Z,74.25
2023-11-07T11:32:28.131Z,75.40
2023-11-07T11:35:18.614Z,75.14
2023-11-07T11:38:11.708Z,76.44
2023-11-07T11:41:01.369Z,75.88
2023-11-07T11:43:30.136Z,75.06
2023-11-07T11:46:00.980Z,74.23
2023-11-07T11:48:52.989Z,76.42
2023-11-07T11:51:37.610Z,75.88
2023-11-07T11:54:07.467Z,74.98
2023-11-07T11:56:57.043Z,75.72
2023-11-07T11:59:31.586Z,74.07
2023-11-07T12:02:00.556Z,74.43
2023-11-07T12:04:40.151Z,74.81
2023-11-07T12:07:16.415Z,75.22
2023-11-07T12:09:57.085Z,74.64
2023-11-07T12:12:23.694Z,74.12
2023-11-07T12:14:52.462Z,73.91
2023-11-07T12:17:19.821Z,73.34
2023-11-07T12:19:46.319Z,73.72
2023-11-07T12:22:12.945Z,74.86
2023-11-07T12:24:40.509Z,74.36
2023-11-07T12:27:07.347Z,74.11
2023-11-07T12:29:35.691Z,74.12
2023-11-07T12:32:07.021Z,73.02
2023-11-07T12:34:35.254Z,73.13
2023-11-07T12:37:15.047Z,73.54
2023-11-07T12:39:42.656Z,71.53
2023-11-07T12:42:12.430Z,72.44
2023-11-07T12:44:42.317Z,72.97
2023-11-07T12:47:11.940Z,72.01
2023-11-07T12:49:39.580Z,72.19
2023-11-07T12:52:13.013Z,71.05
2023-11-07T12:54:40.198Z,70.98
2023-11-07T12:57:06.779Z,72.61
2023-11-07T12:59:36.185Z,71.70
2023-11-07T13:02:02.965Z,71.62
2023-11-07T13:04:29.544Z,71.76
2023-11-07T13:06:57.953Z,70.68
2023-11-07T13:09:32.106Z,71.95
2023-11-07T13:12:12.430Z,73.10
2023-11-07T13:14:40.011Z,73.14
2023-11-07T13:17:08.504Z,73.21
2023-11-07T13:19:36.434Z,73.40
2023-11-07T13:22:04.729Z,72.52
2023-11-07T13:24:31.962Z,73.44
2023-11-07T13:26:58.604Z,72.82
2023-11-07T13:29:25.060Z,72.36
2023-11-07T13:31:51.535Z,72.26
2023-11-07T13:34:18.710Z,72.06
2023-11-07T13:36:45.643Z,72.63
2023-11-07T13:39:23.469Z,72.44
2023-11-07T13:41:50.716Z,72.77
2023-11-07T13:44:17.275Z,72.92
2023-11-07T13:46:43.831Z,73.93
2023-11-07T13:49:10.608Z,73.46
2023-11-07T13:51:39.477Z,74.39
2023-11-07T13:54:09.544Z,74.35
2023-11-07T13:56:36.520Z,74.25
2023-11-07T13:59:06.408Z,73.67
2023-11-07T14:01:37.162Z,73.75
2023-11-07T14:04:04.052Z,73.17
2023-11-07T14:06:30.671Z,72.91
2023-11-07T14:08:57.400Z,74.13
2023-11-07T14:11:23.849Z,74.47
2023-11-07T14:13:51.753Z,74.25
2023-11-07T14:16:18.889Z,74.20
2023-11-07T14:18:46.463Z,74.17
2023-11-07T14:21:16.258Z,74.12
2023-11-07T14:23:46.023Z,73.72
2023-11-07T14:26:12.459Z,72.62
2023-11-07T14:28:50.044Z,73.29
2023-11-07T14:31:21.626Z,73.51
2023-11-07T14:33:48.981Z,74.08
2023-11-07T14:36:16.034Z,74.07
2023-11-07T14:38:43.633Z,75.01
2023-11-07T14:41:11.030Z,74.09
2023-11-07T14:43:37.890Z,74.85
2023-11-07T14:46:06.414Z,74.54
2023-11-07T14:48:34.148Z,74.66
2023-11-07T14:51:01.006Z,74.61
2023-11-07T14:53:28.105Z,75.33
2023-11-07T14:55:56.600Z,75.16
2023-11-07T14:58:25.981Z,75.44
2023-11-07T15:00:55.187Z,74.89
2023-11-07T15:03:22.021Z,74.82
2023-11-07T15:05:50.984Z,75.89
2023-11-07T15:08:17.654Z,75.65
2023-11-07T15:10:44.300Z,75.69
2023-11-07T15:13:11.944Z,75.53
2023-11-07T15:15:38.418Z,75.87
2023-11-07T15:18:05.570Z,76.55
2023-11-07T15:20:33.141Z,76.92
2023-11-07T15:23:02.391Z,77.23
2023-11-07T15:25:35.205Z,76.74
2023-11-07T15:28:02.256Z,77.00
2023-11-07T15:30:28.913Z,76.96
2023-11-07T15:32:58.083Z,76.84
2023-11-07T15:35:25.524Z,77.40
2023-11-07T15:37:52.519Z,77.62
2023-11-07T15:40:22.002Z,77.45
2023-11-07T15:42:50.919Z,77.51
2023-11-07T15:45:19.887Z,77.94
2023-11-07T15:47:47.858Z,77.81
2023-11-07T15:50:16.633Z,77.51
2023-11-07T15:52:59.821Z,78.52
2023-11-07T15:55:34.902Z,78.37
2023-11-07T15:58:01.542Z,78.54
2023-11-07T16:00:29.017Z,78.79
2023-11-07T16:02:55.808Z,79.15
2023-11-07T16:05:27.378Z,78.87
2023-11-07T16:07:54.726Z,79.03
2023-11-07T16:10:21.428Z,79.24
2023-11-07T16:12:47.886Z,79.58
2023-11-07T16:15:15.871Z,80.36
2023-11-07T16:17:49.816Z,80.37
2023-11-07T16:20:23.336Z,80.49
2023-11-07T16:22:49.888Z,80.16
2023-11-07T16:25:19.993Z,80.11
2023-11-07T16:27:46.794Z,80.54
2023-11-07T16:30:15.099Z,80.07
2023-11-07T16:32:42.178Z,80.08
2023-11-07T16:35:09.258Z,80.43
2023-11-07T16:37:35.853Z,80.81
2023-11-07T16:40:03.993Z,80.49
2023-11-07T16:42:32.247Z,81.16
2023-11-07T16:44:59.019Z,81.45
2023-11-07T16:47:25.743Z,81.61
2023-11-07T16:49:52.332Z,81.78
2023-11-07T16:52:20.955Z,81.18
2023-11-07T16:54:47.643Z,81.27
2023-11-07T16:57:14.141Z,82.14
2023-11-07T16:59:44.134Z,82.17
2023-11-07T17:02:11.390Z,81.44
2023-11-07T17:04:38.393Z,82.62
2023-11-07T17:07:05.863Z,82.61
2023-11-07T17:09:34.065Z,83.16
2023-11-07T17:12:01.026Z,82.79
2023-11-07T17:14:27.568Z,82.48
2023-11-07T17:16:54.818Z,83.74
2023-11-07T17:19:21.300Z,83.11
2023-11-07T17:21:49.232Z,82.90
2023-11-07T17:24:17.027Z,83.05
2023-11-07T17:26:43.601Z,82.58
2023-11-07T17:29:11.220Z,83.12
2023-11-07T17:31:38.766Z,82.98
2023-11-07T17:34:08.225Z,83.20
2023-11-07T17:36:36.188Z,83.62
2023-11-07T17:39:04.550Z,83.48
2023-11-07T17:41:33.192Z,83.91
2023-11-07T17:43:59.922Z,84.28
2023-11-07T17:46:26.530Z,83.61
2023-11-07T17:48:53.134Z,83.89
2023-11-07T17:51:23.274Z,83.99
2023-11-07T17:53:53.274Z,84.60
2023-11-07T17:56:21.035Z,83.91
2023-11-07T17:58:48.278Z,84.12
2023-11-07T18:01:19.858Z,83.56
2023-11-07T18:03:46.956Z,84.78
2023-11-07T18:06:13.475Z,83.92
2023-11-07T18:08:40.360Z,84.44
2023-11-07T18:11:08.553Z,84.66
2023-11-07T18:13:35.829Z,84.38
2023-11-07T18:16:02.447Z,85.01
2023-11-07T18:18:29.106Z,84.25
2023-11-07T18:20:55.701Z,84.32
2023-11-07T18:23:22.164Z,84.86
2023-11-07T18:25:48.691Z,84.38
2023-11-07T18:28:15.177Z,84.92
2023-11-07T18:30:43.320Z,85.02
2023-11-07T18:33:09.914Z,84.30
2023-11-07T18:35:36.552Z,84.81
2023-11-07T18:38:03.034Z,84.07
2023-11-07T18:40:29.468Z,84.72
2023-11-07T18:42:55.887Z,85.10
2023-11-07T18:45:22.317Z,84.11
2023-11-07T18:47:49.441Z,84.65
2023-11-07T18:50:17.414Z,84.58
2023-11-07T18:52:43.876Z,83.82
2023-11-07T18:55:10.767Z,84.22
2023-11-07T18:57:37.626Z,85.37
2023-11-07T19:00:05.240Z,86.32
2023-11-07T19:02:31.891Z,86.43
2023-11-07T19:04:59.600Z,86.20
2023-11-07T19:07:26.819Z,86.46
2023-11-07T19:09:53.551Z,86.19
2023-11-07T19:12:20.268Z,87.56
2023-11-07T19:14:46.871Z,87.46
2023-11-07T19:17:13.522Z,87.62
2023-11-07T19:19:39.985Z,87.67
2023-11-07T19:22:06.520Z,87.46
2023-11-07T19:24:33.037Z,87.53
2023-11-07T19:27:00.314Z,87.71
2023-11-07T19:29:27.118Z,87.84
2023-11-07T19:31:55.083Z,87.75
2023-11-07T19:34:22.663Z,87.43
2023-11-07T19:36:51.398Z,88.02
2023-11-07T19:39:36.212Z,88.23
2023-11-07T19:42:04.849Z,88.20
2023-11-07T19:44:31.788Z,88.52
2023-11-07T19:46:58.547Z,87.64
2023-11-07T19:49:26.693Z,87.65
2023-11-07T19:51:53.742Z,87.76
2023-11-07T19:54:20.183Z,88.49
2023-11-07T19:56:46.814Z,89.07
2023-11-07T19:59:13.422Z,88.31
2023-11-07T20:01:40.178Z,88.69
2023-11-07T20:04:07.162Z,88.23
2023-11-07T20:06:33.845Z,88.42
2023-11-07T20:09:00.523Z,88.56
2023-11-07T20:11:27.120Z,88.85
2023-11-07T20:13:53.918Z,89.43
2023-11-07T20:16:20.418Z,89.03
2023-11-07T20:18:47.102Z,89.45
2023-11-07T20:21:15.982Z,89.06
2023-11-07T20:23:42.789Z,89.75
2023-11-07T20:26:09.254Z,89.83
2023-11-07T20:28:35.732Z,89.94
2023-11-07T20:31:03.924Z,89.95
2023-11-07T20:33:41.308Z,89.79
2023-11-07T20:36:19.656Z,89.69
2023-11-07T20:38:47.665Z,90.98
2023-11-07T20:41:18.538Z,90.86
2023-11-07T20:43:46.197Z,91.51
2023-11-07T20:46:31.171Z,91.16
2023-11-07T20:49:03.431Z,91.47
2023-11-07T20:51:32.236Z,91.50
2023-11-07T20:53:59.318Z,91.20
2023-11-07T20:56:29.489Z,92.32
2023-11-07T20:58:57.606Z,93.16
2023-11-07T21:01:24.257Z,92.85
2023-11-07T21:03:50.888Z,94.21
2023-11-07T21:06:17.653Z,94.39
2023-11-07T21:08:45.168Z,95.07
2023-11-07T21:11:13.652Z,95.29
2023-11-07T21:13:40.177Z,95.25
2023-11-07T21:16:08.252Z,95.72
2023-11-07T21:18:34.749Z,95.52
2023-11-07T21:21:01.206Z,95.83
2023-11-07T21:23:28.190Z,96.86
2023-11-07T21:25:54.637Z,95.73
2023-11-07T21:28:21.101Z,96.35
2023-11-07T21:30:48.024Z,97.41
2023-11-07T21:33:15.576Z,97.21
2023-11-07T21:35:43.801Z,97.58
2023-11-07T21:38:10.402Z,95.84
2023-11-07T21:40:40.640Z,97.35
2023-11-07T21:43:07.495Z,96.80
2023-11-07T21:45:33.965Z,98.02
2023-11-07T21:48:00.744Z,97.97
2023-11-07T21:50:28.096Z,98.30
2023-11-07T21:52:54.926Z,98.05
2023-11-07T21:55:22.103Z,98.65
2023-11-07T21:57:48.921Z,97.79
2023-11-07T22:00:16.545Z,98.07
2023-11-07T22:02:44.452Z,98.31
2023-11-07T22:05:16.206Z,98.10
2023-11-07T22:07:43.616Z,98.63
2023-11-07T22:10:15.017Z,98.20
2023-11-07T22:12:44.991Z,98.58
2023-11-07T22:15:14.652Z,98.65
2023-11-07T22:17:42.342Z,98.90
2023-11-07T22:20:11.408Z,99.95
2023-11-07T22:22:40.681Z,98.79
2023-11-07T22:25:09.712Z,98.71
2023-11-07T22:27:36.695Z,98.76
2023-11-07T22:30:09.725Z,99.23
2023-11-07T22:32:38.418Z,99.32
2023-11-07T22:35:05.770Z,100.00
2023-11-07T22:37:32.531Z,98.87
2023-11-07T22:39:59.102Z,99.82
2023-11-07T22:42:25.744Z,99.33
2023-11-07T22:44:52.452Z,100.00
2023-11-07T22:47:18.925Z,99.16
2023-11-07T22:49:45.390Z,100.00
2023-11-07T22:52:14.467Z,99.59
2023-11-07T22:54:41.178Z,99.89
2023-11-07T22:57:07.685Z,99.16
2023-11-07T22:59:34.084Z,100.00
2023-11-07T23:02:00.499Z,100.00
2023-11-07T23:04:26.914Z,100.00
2023-11-07T23:06:56.707Z,100.00
2023-11-07T23:09:24.610Z,100.00
2023-11-07T23:11:51.109Z,100.00
2023-11-07T23:14:17.685Z,100.00
2023-11-07T23:16:44.115Z,100.00
2023-11-07T23:19:12.641Z,99.58
2023-11-07T23:21:39.221Z,99.49
2023-11-07T23:24:06.433Z,99.38
2023-11-07T23:26:38.548Z,98.86
2023-11-07T23:29:08.492Z,99.68
2023-11-07T23:31:34.998Z,99.71
2023-11-07T23:34:01.560Z,99.80
2023-11-07T23:36:28.138Z,99.52
2023-11-07T23:38:54.610Z,99.02
2023-11-07T23:41:22.530Z,99.15
2023-11-07T23:43:49.170Z,99.50
2023-11-07T23:46:15.672Z,99.83
2023-11-07T23:48:42.198Z,99.61
2023-11-07T23:51:09.283Z,99.57
2023-11-07T23:53:35.793Z,100.00
2023-11-07T23:56:02.313Z,100.00
2023-11-07T23:58:28.755Z,100.00
